Time;durP1;ratioP1;P1;durP2;ratioP2;P2;SDS_P1;SDS_P2;PMS_P1;PMS_P2;Temp;Humidity;BMP_temperature;BMP_pressure;BME280_temperature;BME280_humidity;BME280_pressure;Samples;Min_cycle;Max_cycle;Signal;HPM_P1;HPM_P2
2021/11/08 07:15:23;;;;;;;6.10;2.50;;;;;;;16.79;55.97;102214.69;5699553;24;20922;31
2021/11/08 08:26:30;;;;;;;7.15;2.10;;;;;;;17.28;57.03;102303.00;4834125;29;20038;-82
2021/11/08 08:35:57;;;;;;;6.25;2.00;;;;;;;17.24;57.70;102311.63;4794087;29;20069;-84
2021/11/08 08:42:22;;;;;;;7.90;1.98;;;;;;;17.23;57.69;102289.06;4791240;30;20217;-82
2021/11/08 08:45:27;;;;;;;5.90;2.00;;;;;;;17.23;57.88;102287.34;4793613;30;20047;-84
2021/11/08 08:51:29;;;;;;;3.47;1.50;;;;;;;17.25;57.59;102296.03;4794411;29;20092;-84
2021/11/08 08:53:56;;;;;;;4.45;1.83;;;;;;;17.26;57.67;102289.97;4791438;30;20028;-82
2021/11/08 08:59:48;;;;;;;5.72;1.95;;;;;;;17.36;57.46;102298.81;4791961;30;20077;-83
2021/11/08 09:02:14;;;;;;;5.68;1.90;;;;;;;17.40;57.57;102292.78;4788059;30;20035;-82
2021/11/08 09:04:40;;;;;;;10.25;2.25;;;;;;;17.42;57.52;102292.78;4786236;30;20043;-81
2021/11/08 09:07:07;;;;;;;5.30;1.70;;;;;;;17.41;57.52;102294.53;4771199;30;20036;-81
2021/11/08 09:09:34;;;;;;;7.35;2.00;;;;;;;17.38;57.67;102297.09;4784955;30;20099;-81
2021/11/08 09:12:00;;;;;;;7.40;1.90;;;;;;;17.39;57.40;102306.63;4783507;29;20126;-82
2021/11/08 09:14:31;;;;;;;7.13;1.92;;;;;;;17.38;57.75;102304.03;4792387;29;20031;-81
2021/11/08 09:16:58;;;;;;;8.35;1.88;;;;;;;17.43;57.54;102310.19;4807758;29;20034;-82
2021/11/08 09:19:25;;;;;;;4.50;1.65;;;;;;;17.44;57.91;102305.00;4803870;29;20034;-81
2021/11/08 09:21:54;;;;;;;5.80;1.90;;;;;;;17.44;57.91;102317.13;4814011;29;20026;-81
2021/11/08 09:24:22;;;;;;;6.82;2.03;;;;;;;17.44;58.14;102318.00;4782914;29;20408;-81
2021/11/08 09:26:50;;;;;;;4.63;1.80;;;;;;;17.46;58.02;102321.50;4801266;29;20056;-81
2021/11/08 09:29:21;;;;;;;3.45;1.50;;;;;;;17.48;57.92;102330.22;4804792;29;20565;-81
2021/11/08 09:31:48;;;;;;;5.88;1.80;;;;;;;17.49;57.82;102328.47;4806093;29;20138;-81
2021/11/08 09:34:16;;;;;;;5.93;1.67;;;;;;;17.51;57.74;102331.09;4804169;29;20175;-81
2021/11/08 09:36:44;;;;;;;6.40;2.03;;;;;;;17.51;57.69;102326.78;4802344;29;20122;-81
2021/11/08 09:39:21;;;;;;;4.63;1.80;;;;;;;17.54;57.74;102334.63;4816186;29;20507;-81
2021/11/08 09:41:48;;;;;;;5.15;1.90;;;;;;;17.55;57.66;102330.28;4800570;29;20058;-81
2021/11/08 09:44:14;;;;;;;4.97;2.08;;;;;;;17.57;57.95;102332.09;4801728;29;20030;-81
2021/11/08 09:46:42;;;;;;;4.88;1.67;;;;;;;17.58;57.96;102331.22;4786047;29;20037;-81
2021/11/08 09:49:09;;;;;;;6.72;1.65;;;;;;;17.59;57.77;102329.47;4801248;29;20041;-81
2021/11/08 09:51:40;;;;;;;4.78;1.65;;;;;;;17.60;58.11;102332.13;4802225;29;20037;-82
2021/11/08 09:54:28;;;;;;;4.22;1.48;;;;;;;17.63;57.83;102334.75;4807512;29;20038;-82
2021/11/08 09:57:00;;;;;;;4.38;1.60;;;;;;;17.67;57.61;102331.34;4809410;29;20066;-81
2021/11/08 09:59:31;;;;;;;4.43;1.52;;;;;;;17.68;57.82;102325.28;4821707;29;20030;-82
2021/11/08 10:01:57;;;;;;;5.00;1.63;;;;;;;17.72;57.85;102327.94;4787926;29;20093;-82
2021/11/08 10:04:23;;;;;;;5.70;1.63;;;;;;;17.76;57.80;102329.72;4814997;29;20038;-81
2021/11/08 10:06:50;;;;;;;5.47;1.63;;;;;;;17.79;57.81;102333.25;4815415;29;20080;-82
2021/11/08 10:09:19;;;;;;;3.90;1.70;;;;;;;17.84;57.96;102328.13;4818871;29;20378;-82
2021/11/08 10:11:49;;;;;;;5.70;1.45;;;;;;;17.85;57.56;102329.88;4825070;29;20023;-82
2021/11/08 10:14:19;;;;;;;5.18;1.80;;;;;;;17.83;57.82;102335.06;4825977;29;20086;-82
2021/11/08 10:17:10;;;;;;;5.28;1.73;;;;;;;17.79;57.96;102333.25;4826930;29;20043;-82
2021/11/08 10:28:11;;;;;;;5.70;1.58;;;;;;;17.68;58.13;102335.72;4851746;24;20083;-80
2021/11/08 10:30:37;;;;;;;3.28;1.48;;;;;;;17.69;58.19;102339.19;4829795;29;20037;-81
2021/11/08 10:39:52;;;;;;;4.40;1.60;;;;;;;17.65;58.35;102340.84;4863184;29;20131;-82
2021/11/08 10:46:01;;;;;;;6.78;1.80;;;;;;;17.91;58.61;102347.31;4859960;29;20060;-79
2021/11/08 12:34:16;;;;;;;4.57;1.60;;;;;;;17.68;63.32;102346.13;4980349;24;20127;-84
2021/11/08 14:09:02;;;;;;;4.30;1.70;;;;;;;17.39;68.83;102363.03;4828005;29;20065;-83
2021/11/08 14:11:43;;;;;;;4.53;1.25;;;;;;;17.37;67.35;102359.53;4826332;29;20061;-82
2021/11/08 14:24:04;;;;;;;6.75;2.00;;;;;;;17.24;70.52;102371.44;4829915;29;20261;-86
2021/11/08 14:30:48;;;;;;;4.95;1.63;;;;;;;17.34;66.60;102362.97;4830164;29;20049;-85
2021/11/08 14:33:53;;;;;;;6.18;1.58;;;;;;;17.35;67.27;102374.22;4773903;30;20052;-84
2021/11/08 14:36:47;;;;;;;3.85;1.30;;;;;;;17.36;67.38;102378.59;4803940;29;20047;-84
2021/11/08 14:39:27;;;;;;;6.28;1.60;;;;;;;17.38;67.37;102369.97;4829639;29;20067;-85
2021/11/08 14:52:56;;;;;;;4.65;1.45;;;;;;;17.42;65.92;102373.47;4811008;29;20088;-87
2021/11/08 15:17:01;;;;;;;3.80;1.20;;;;;;;17.45;65.31;102394.34;5071665;24;20067;-85
2021/11/08 15:20:10;;;;;;;5.75;1.75;;;;;;;17.45;66.34;102392.63;4811842;29;20042;-84
2021/11/08 15:22:48;;;;;;;4.88;1.60;;;;;;;17.46;66.65;102398.69;5049242;24;20066;-84
2021/11/08 15:26:09;;;;;;;5.30;1.52;;;;;;;17.49;64.68;102393.56;4826563;29;20043;-85
2021/11/08 15:28:53;;;;;;;3.47;1.40;;;;;;;17.45;68.22;102395.22;4807676;29;20031;-85
2021/11/08 15:32:02;;;;;;;3.67;1.25;;;;;;;17.44;65.91;102398.69;4812871;29;20047;-85
2021/11/08 15:34:29;;;;;;;3.55;1.52;;;;;;;17.49;68.14;102398.75;4809153;29;20101;-83
2021/11/08 15:37:13;;;;;;;6.75;1.95;;;;;;;17.52;64.56;102393.59;4793297;30;20038;-83
2021/11/08 15:39:41;;;;;;;3.85;1.35;;;;;;;17.48;65.12;102391.78;4787672;30;20044;-84
2021/11/08 15:42:48;;;;;;;4.35;1.55;;;;;;;17.51;65.52;102396.16;4807543;30;20045;-85
2021/11/08 15:45:15;;;;;;;5.30;1.33;;;;;;;17.50;65.88;102400.50;4808824;29;20186;-83
2021/11/08 15:47:57;;;;;;;5.03;1.33;;;;;;;17.45;68.60;102396.97;4795898;30;20052;-84
2021/11/08 15:50:31;;;;;;;3.15;1.33;;;;;;;17.42;68.72;102397.78;4811350;30;20035;-84
2021/11/08 15:52:59;;;;;;;4.90;1.50;;;;;;;17.35;69.73;102395.91;4781397;30;20166;-83
2021/11/08 15:55:28;;;;;;;3.95;1.42;;;;;;;17.32;68.01;102393.28;4811106;29;20039;-83
2021/11/08 16:19:00;;;;;;;5.65;1.45;;;;;;;17.19;69.34;102394.78;4815606;29;20044;-83
2021/11/08 16:25:29;;;;;;;5.90;1.40;;;;;;;17.19;69.89;102406.94;4813743;29;20093;-86
2021/11/08 16:41:34;;;;;;;5.13;1.70;;;;;;;17.29;69.51;102414.06;5790440;24;20021;-82
2021/11/08 16:44:52;;;;;;;6.45;2.00;;;;;;;17.30;70.36;102420.13;4829429;29;20047;-84
2021/11/08 16:47:23;;;;;;;5.03;1.85;;;;;;;17.35;68.06;102421.06;4829780;29;20031;-82
2021/11/08 16:49:50;;;;;;;5.18;2.00;;;;;;;17.36;67.83;102428.91;4822839;29;20041;-82
2021/11/08 16:55:41;;;;;;;6.88;2.40;;;;;;;17.39;68.30;102439.34;4828976;29;20122;-82
2021/11/08 17:02:08;;;;;;;3.88;1.95;;;;;;;17.44;69.12;102442.03;4830552;29;20030;-82
2021/11/08 17:32:33;;;;;;;12.75;3.92;;;;;;;17.12;79.78;102490.94;4869342;24;20078;-81
2021/11/08 17:35:07;;;;;;;9.38;3.40;;;;;;;17.10;80.38;102490.03;4804981;29;20026;-81
2021/11/08 17:37:34;;;;;;;;;;;;;;;17.01;81.26;102490.72;4845852;29;20018;-83
2021/11/08 17:40:20;;;;;;;7.30;3.40;;;;;;;16.82;81.92;102492.94;4815312;29;19917;-83
2021/11/08 17:42:49;;;;;;;6.78;3.25;;;;;;;16.71;81.80;102502.22;4846515;29;20034;-84
2021/11/08 17:53:25;;;;;;;6.78;3.33;;;;;;;16.57;81.54;102516.63;5025160;24;20068;-84
2021/11/08 17:56:00;;;;;;;6.53;3.08;;;;;;;16.56;80.87;102518.38;4845247;29;20030;-84
2021/11/08 17:58:27;;;;;;;7.25;3.00;;;;;;;16.54;80.64;102509.66;4845737;29;20102;-84
2021/11/08 18:00:54;;;;;;;7.60;3.42;;;;;;;16.55;81.07;102513.13;4829807;29;20062;-83
2021/11/08 18:04:05;;;;;;;7.40;3.30;;;;;;;16.54;81.10;102512.25;4830656;29;20094;-86
2021/11/08 18:06:32;;;;;;;6.25;2.80;;;;;;;16.54;81.23;102512.25;4845080;29;20090;-83
2021/11/08 18:09:00;;;;;;;9.10;3.20;;;;;;;16.51;81.50;102511.34;4845168;29;20147;-85
2021/11/08 18:11:34;;;;;;;8.15;3.00;;;;;;;16.52;80.89;102506.16;4845694;29;20087;-86
2021/11/08 18:19:11;;;;;;;7.20;3.58;;;;;;;16.53;81.34;102514.84;5013504;24;20066;-81
2021/11/08 18:24:37;;;;;;;11.25;4.63;;;;;;;16.58;80.96;102521.00;4844968;29;20034;-81
2021/11/08 18:27:05;;;;;;;11.52;4.32;;;;;;;16.54;81.30;102516.59;4835646;29;20038;-81
2021/11/08 18:29:34;;;;;;;7.80;4.45;;;;;;;16.60;80.69;102524.53;4850234;29;20033;-81
2021/11/08 18:32:05;;;;;;;11.82;4.28;;;;;;;16.63;80.12;102521.97;4854482;29;20005;-81
2021/11/08 18:34:31;;;;;;;13.63;4.30;;;;;;;16.63;80.68;102530.63;4857072;29;20042;-82
2021/11/08 18:37:03;;;;;;;10.07;4.40;;;;;;;16.60;81.08;102517.59;4855534;29;20034;-81
2021/11/08 18:39:36;;;;;;;9.93;4.85;;;;;;;16.64;80.82;102522.00;4849399;29;20034;-81
2021/11/08 18:42:10;;;;;;;11.55;4.63;;;;;;;16.64;80.25;102510.75;4841912;29;20070;-82
2021/11/08 18:45:04;;;;;;;8.10;4.15;;;;;;;16.67;80.44;102518.59;4859298;29;20559;-82
2021/11/08 18:47:35;;;;;;;9.05;4.50;;;;;;;16.65;81.28;102510.75;4838736;29;20026;-81
2021/11/08 18:50:04;;;;;;;6.97;3.70;;;;;;;16.63;80.42;102514.19;4852259;29;20036;-81
2021/11/08 18:52:30;;;;;;;9.82;4.38;;;;;;;16.63;80.79;102516.78;4834063;29;20106;-81
2021/11/08 18:54:56;;;;;;;10.85;4.47;;;;;;;16.64;81.18;102518.53;4836003;29;20476;-80
2021/11/08 18:57:24;;;;;;;8.82;4.03;;;;;;;16.63;80.51;102517.66;4849525;29;20512;-81
2021/11/08 18:59:51;;;;;;;10.68;4.65;;;;;;;16.62;81.27;102520.22;4855807;29;20083;-81
2021/11/08 19:03:07;;;;;;;7.63;4.50;;;;;;;16.63;80.96;102511.56;4859256;29;20045;-81
2021/11/08 19:05:39;;;;;;;9.40;4.55;;;;;;;16.62;80.99;102508.09;4861104;29;20061;-81
2021/11/08 20:16:59;;;;;;;9.75;4.80;;;;;;;16.70;77.52;102522.97;5214230;24;20034;31
2021/11/08 22:43:27;;;;;;;7.00;3.42;;;;;;;16.57;74.77;102555.63;5107801;24;20273;-85
2021/11/08 22:46:54;;;;;;;6.80;3.40;;;;;;;16.57;74.03;102555.63;4791767;30;20079;-86
2021/11/08 23:20:04;;;;;;;9.55;3.35;;;;;;;16.56;72.88;102544.34;4839608;29;20087;-87
2021/11/08 23:43:29;;;;;;;6.55;3.13;;;;;;;16.53;72.80;102546.91;4850631;29;20034;-87
